sensor_id;sensor_type;location;lat;lon;timestamp;temperature;humidity
12130;DHT22;6128;59.340;18.040;2022-10-13T00:01:58;8.10;99.90
12130;DHT22;6128;59.340;18.040;2022-10-13T00:04:26;8.10;99.90
12130;DHT22;6128;59.340;18.040;2022-10-13T00:06:53;8.10;99.90
12130;DHT22;6128;59.340;18.040;2022-10-13T00:09:20;8.10;99.90
12130;DHT22;6128;59.340;18.040;2022-10-13T00:11:47;8.10;99.90
12130;DHT22;6128;59.340;18.040;2022-10-13T00:14:15;8.10;99.90
12130;DHT22;6128;59.340;18.040;2022-10-13T00:16:42;8.10;99.90
12130;DHT22;6128;59.340;18.040;2022-10-13T00:19:09;8.20;99.90
12130;DHT22;6128;59.340;18.040;2022-10-13T00:21:37;8.10;99.90
12130;DHT22;6128;59.340;18.040;2022-10-13T00:24:04;8.10;99.90
12130;DHT22;6128;59.340;18.040;2022-10-13T00:26:31;8.10;99.90
12130;DHT22;6128;59.340;18.040;2022-10-13T00:28:58;8.10;99.90
12130;DHT22;6128;59.340;18.040;2022-10-13T00:31:28;8.10;99.90
12130;DHT22;6128;59.340;18.040;2022-10-13T00:33:57;8.10;99.90
12130;DHT22;6128;59.340;18.040;2022-10-13T00:36:28;8.10;99.90
12130;DHT22;6128;59.340;18.040;2022-10-13T00:38:56;8.10;99.90
12130;DHT22;6128;59.340;18.040;2022-10-13T00:41:24;8.10;99.90
12130;DHT22;6128;59.340;18.040;2022-10-13T00:43:54;8.10;99.90
12130;DHT22;6128;59.340;18.040;2022-10-13T00:46:24;8.10;99.90
12130;DHT22;6128;59.340;18.040;2022-10-13T00:48:53;8.10;99.90
12130;DHT22;6128;59.340;18.040;2022-10-13T00:51:23;8.10;99.90
12130;DHT22;6128;59.340;18.040;2022-10-13T00:53:52;8.10;99.90
12130;DHT22;6128;59.340;18.040;2022-10-13T00:56:22;8.10;99.90
12130;DHT22;6128;59.340;18.040;2022-10-13T00:58:51;8.10;99.90
12130;DHT22;6128;59.340;18.040;2022-10-13T01:01:19;8.10;99.90
12130;DHT22;6128;59.340;18.040;2022-10-13T01:03:46;8.20;99.90
12130;DHT22;6128;59.340;18.040;2022-10-13T01:06:15;8.20;99.90
12130;DHT22;6128;59.340;18.040;2022-10-13T01:08:42;8.20;99.90
12130;DHT22;6128;59.340;18.040;2022-10-13T01:11:46;8.20;99.90
12130;DHT22;6128;59.340;18.040;2022-10-13T01:14:21;8.20;99.90
12130;DHT22;6128;59.340;18.040;2022-10-13T01:16:59;8.20;99.90
12130;DHT22;6128;59.340;18.040;2022-10-13T01:19:55;8.20;99.90
12130;DHT22;6128;59.340;18.040;2022-10-13T01:22:44;8.10;99.90
12130;DHT22;6128;59.340;18.040;2022-10-13T01:25:25;8.10;99.90
12130;DHT22;6128;59.340;18.040;2022-10-13T01:28:14;8.10;99.90
12130;DHT22;6128;59.340;18.040;2022-10-13T01:30:51;8.10;99.90
12130;DHT22;6128;59.340;18.040;2022-10-13T01:33:29;8.00;99.90
12130;DHT22;6128;59.340;18.040;2022-10-13T01:36:05;8.00;99.90
12130;DHT22;6128;59.340;18.040;2022-10-13T01:38:40;8.00;99.90
12130;DHT22;6128;59.340;18.040;2022-10-13T01:41:13;8.10;99.90
12130;DHT22;6128;59.340;18.040;2022-10-13T01:43:46;8.10;99.90
12130;DHT22;6128;59.340;18.040;2022-10-13T01:46:20;8.20;99.90
12130;DHT22;6128;59.340;18.040;2022-10-13T01:48:48;8.20;99.90
12130;DHT22;6128;59.340;18.040;2022-10-13T01:51:18;8.30;99.90
12130;DHT22;6128;59.340;18.040;2022-10-13T01:53:47;8.30;99.90
12130;DHT22;6128;59.340;18.040;2022-10-13T01:56:15;8.30;99.90
12130;DHT22;6128;59.340;18.040;2022-10-13T01:58:42;8.30;99.90
12130;DHT22;6128;59.340;18.040;2022-10-13T02:01:33;8.30;99.90
12130;DHT22;6128;59.340;18.040;2022-10-13T02:04:16;8.30;99.90
12130;DHT22;6128;59.340;18.040;2022-10-13T02:06:51;8.30;99.90
12130;DHT22;6128;59.340;18.040;2022-10-13T02:09:22;8.20;99.90
12130;DHT22;6128;59.340;18.040;2022-10-13T02:11:57;8.20;99.90
12130;DHT22;6128;59.340;18.040;2022-10-13T02:14:28;8.20;99.90
12130;DHT22;6128;59.340;18.040;2022-10-13T02:17:00;8.20;99.90
12130;DHT22;6128;59.340;18.040;2022-10-13T02:19:29;8.20;99.90
12130;DHT22;6128;59.340;18.040;2022-10-13T02:21:57;8.20;99.90
12130;DHT22;6128;59.340;18.040;2022-10-13T02:24:24;8.20;99.90
12130;DHT22;6128;59.340;18.040;2022-10-13T02:26:52;8.20;99.90
12130;DHT22;6128;59.340;18.040;2022-10-13T02:29:19;8.20;99.90
12130;DHT22;6128;59.340;18.040;2022-10-13T02:31:47;8.20;99.90
12130;DHT22;6128;59.340;18.040;2022-10-13T02:34:15;8.20;99.90
12130;DHT22;6128;59.340;18.040;2022-10-13T02:36:42;8.20;99.90
12130;DHT22;6128;59.340;18.040;2022-10-13T02:39:10;8.20;99.90
12130;DHT22;6128;59.340;18.040;2022-10-13T02:41:37;8.20;99.90
12130;DHT22;6128;59.340;18.040;2022-10-13T02:44:05;8.20;99.90
12130;DHT22;6128;59.340;18.040;2022-10-13T02:46:32;8.10;99.90
12130;DHT22;6128;59.340;18.040;2022-10-13T02:48:59;8.10;99.90
12130;DHT22;6128;59.340;18.040;2022-10-13T02:51:27;8.10;99.90
12130;DHT22;6128;59.340;18.040;2022-10-13T02:53:54;8.10;99.90
12130;DHT22;6128;59.340;18.040;2022-10-13T02:56:21;8.00;99.90
12130;DHT22;6128;59.340;18.040;2022-10-13T02:58:48;8.00;99.90
12130;DHT22;6128;59.340;18.040;2022-10-13T03:01:16;8.00;99.90
12130;DHT22;6128;59.340;18.040;2022-10-13T03:03:43;8.00;99.90
12130;DHT22;6128;59.340;18.040;2022-10-13T03:06:10;7.90;99.90
12130;DHT22;6128;59.340;18.040;2022-10-13T03:08:39;7.90;99.90
12130;DHT22;6128;59.340;18.040;2022-10-13T03:11:06;7.90;99.90
12130;DHT22;6128;59.340;18.040;2022-10-13T03:13:33;7.80;99.90
12130;DHT22;6128;59.340;18.040;2022-10-13T03:16:00;7.90;99.90
12130;DHT22;6128;59.340;18.040;2022-10-13T03:18:27;7.80;99.90
12130;DHT22;6128;59.340;18.040;2022-10-13T03:20:57;7.80;99.90
12130;DHT22;6128;59.340;18.040;2022-10-13T03:23:25;7.80;99.90
12130;DHT22;6128;59.340;18.040;2022-10-13T03:25:53;7.80;99.90
12130;DHT22;6128;59.340;18.040;2022-10-13T03:28:21;7.80;99.90
12130;DHT22;6128;59.340;18.040;2022-10-13T03:30:48;7.80;99.90
12130;DHT22;6128;59.340;18.040;2022-10-13T03:33:15;7.80;99.90
12130;DHT22;6128;59.340;18.040;2022-10-13T03:35:42;7.80;99.90
12130;DHT22;6128;59.340;18.040;2022-10-13T03:38:09;7.80;99.90
12130;DHT22;6128;59.340;18.040;2022-10-13T03:40:37;7.80;99.90
12130;DHT22;6128;59.340;18.040;2022-10-13T03:43:05;7.80;99.90
12130;DHT22;6128;59.340;18.040;2022-10-13T03:45:32;7.80;99.90
12130;DHT22;6128;59.340;18.040;2022-10-13T03:47:59;7.80;99.90
12130;DHT22;6128;59.340;18.040;2022-10-13T03:50:26;7.80;99.90
12130;DHT22;6128;59.340;18.040;2022-10-13T03:52:53;7.80;99.90
12130;DHT22;6128;59.340;18.040;2022-10-13T03:55:20;7.90;99.90
12130;DHT22;6128;59.340;18.040;2022-10-13T03:57:47;7.90;99.90
12130;DHT22;6128;59.340;18.040;2022-10-13T04:00:16;8.00;99.90
12130;DHT22;6128;59.340;18.040;2022-10-13T04:02:44;8.00;99.90
12130;DHT22;6128;59.340;18.040;2022-10-13T04:05:11;8.00;99.90
12130;DHT22;6128;59.340;18.040;2022-10-13T04:07:38;8.10;99.90
12130;DHT22;6128;59.340;18.040;2022-10-13T04:10:06;8.10;99.90
12130;DHT22;6128;59.340;18.040;2022-10-13T04:12:33;8.20;99.90
12130;DHT22;6128;59.340;18.040;2022-10-13T04:15:00;8.20;99.90
12130;DHT22;6128;59.340;18.040;2022-10-13T04:17:28;8.20;99.90
12130;DHT22;6128;59.340;18.040;2022-10-13T04:19:55;8.30;99.90
12130;DHT22;6128;59.340;18.040;2022-10-13T04:22:22;8.30;99.90
12130;DHT22;6128;59.340;18.040;2022-10-13T04:24:49;8.30;99.90
12130;DHT22;6128;59.340;18.040;2022-10-13T04:27:16;8.30;99.90
12130;DHT22;6128;59.340;18.040;2022-10-13T04:29:44;8.30;99.90
12130;DHT22;6128;59.340;18.040;2022-10-13T04:32:11;8.40;99.90
12130;DHT22;6128;59.340;18.040;2022-10-13T04:34:40;8.40;99.90
12130;DHT22;6128;59.340;18.040;2022-10-13T04:37:07;8.40;99.90
12130;DHT22;6128;59.340;18.040;2022-10-13T04:39:34;8.50;99.90
12130;DHT22;6128;59.340;18.040;2022-10-13T04:42:01;8.50;99.90
12130;DHT22;6128;59.340;18.040;2022-10-13T04:44:28;8.50;99.90
12130;DHT22;6128;59.340;18.040;2022-10-13T04:46:55;8.50;99.90
12130;DHT22;6128;59.340;18.040;2022-10-13T04:49:23;8.60;99.90
12130;DHT22;6128;59.340;18.040;2022-10-13T04:51:52;8.60;99.90
12130;DHT22;6128;59.340;18.040;2022-10-13T04:54:18;8.60;99.90
12130;DHT22;6128;59.340;18.040;2022-10-13T04:56:46;8.70;99.90
12130;DHT22;6128;59.340;18.040;2022-10-13T04:59:13;8.70;99.90
12130;DHT22;6128;59.340;18.040;2022-10-13T05:01:40;8.70;99.90
12130;DHT22;6128;59.340;18.040;2022-10-13T05:04:09;8.80;99.90
12130;DHT22;6128;59.340;18.040;2022-10-13T05:06:40;8.80;99.90
12130;DHT22;6128;59.340;18.040;2022-10-13T05:09:09;8.80;99.90
12130;DHT22;6128;59.340;18.040;2022-10-13T05:11:40;8.80;99.90
12130;DHT22;6128;59.340;18.040;2022-10-13T05:14:07;8.80;99.90
12130;DHT22;6128;59.340;18.040;2022-10-13T05:16:35;8.80;99.90
12130;DHT22;6128;59.340;18.040;2022-10-13T05:19:02;8.80;99.90
12130;DHT22;6128;59.340;18.040;2022-10-13T05:21:29;8.90;99.90
12130;DHT22;6128;59.340;18.040;2022-10-13T05:23:56;8.90;99.90
12130;DHT22;6128;59.340;18.040;2022-10-13T05:26:27;8.90;99.90
12130;DHT22;6128;59.340;18.040;2022-10-13T05:28:57;9.00;99.90
12130;DHT22;6128;59.340;18.040;2022-10-13T05:31:25;9.00;99.90
12130;DHT22;6128;59.340;18.040;2022-10-13T05:33:53;9.00;99.90
12130;DHT22;6128;59.340;18.040;2022-10-13T05:36:22;9.00;99.90
12130;DHT22;6128;59.340;18.040;2022-10-13T05:38:50;9.10;99.90
12130;DHT22;6128;59.340;18.040;2022-10-13T05:41:18;9.20;99.90
12130;DHT22;6128;59.340;18.040;2022-10-13T05:43:47;9.20;99.90
12130;DHT22;6128;59.340;18.040;2022-10-13T05:46:15;9.20;99.90
12130;DHT22;6128;59.340;18.040;2022-10-13T05:48:42;9.20;99.90
12130;DHT22;6128;59.340;18.040;2022-10-13T05:51:11;9.30;99.90
12130;DHT22;6128;59.340;18.040;2022-10-13T05:53:42;9.30;99.90
12130;DHT22;6128;59.340;18.040;2022-10-13T05:56:13;9.30;99.90
12130;DHT22;6128;59.340;18.040;2022-10-13T05:58:44;9.40;99.90
12130;DHT22;6128;59.340;18.040;2022-10-13T06:01:17;9.40;99.90
12130;DHT22;6128;59.340;18.040;2022-10-13T06:03:46;9.50;99.90
12130;DHT22;6128;59.340;18.040;2022-10-13T06:06:15;9.50;99.90
12130;DHT22;6128;59.340;18.040;2022-10-13T06:08:44;9.50;99.90
12130;DHT22;6128;59.340;18.040;2022-10-13T06:11:11;9.50;99.90
12130;DHT22;6128;59.340;18.040;2022-10-13T06:13:38;9.60;99.90
12130;DHT22;6128;59.340;18.040;2022-10-13T06:16:06;9.60;99.90
12130;DHT22;6128;59.340;18.040;2022-10-13T06:18:34;9.60;99.90
12130;DHT22;6128;59.340;18.040;2022-10-13T06:21:01;9.60;99.90
12130;DHT22;6128;59.340;18.040;2022-10-13T06:23:28;9.70;99.90
12130;DHT22;6128;59.340;18.040;2022-10-13T06:25:56;9.80;99.90
12130;DHT22;6128;59.340;18.040;2022-10-13T06:28:23;9.80;99.90
12130;DHT22;6128;59.340;18.040;2022-10-13T06:30:50;9.90;99.90
12130;DHT22;6128;59.340;18.040;2022-10-13T06:33:21;10.00;99.90
12130;DHT22;6128;59.340;18.040;2022-10-13T06:35:50;10.00;99.90
12130;DHT22;6128;59.340;18.040;2022-10-13T06:38:17;10.10;99.90
12130;DHT22;6128;59.340;18.040;2022-10-13T06:40:45;10.10;99.90
12130;DHT22;6128;59.340;18.040;2022-10-13T06:43:12;10.10;99.90
12130;DHT22;6128;59.340;18.040;2022-10-13T06:45:39;10.20;99.90
12130;DHT22;6128;59.340;18.040;2022-10-13T06:48:06;10.20;99.90
12130;DHT22;6128;59.340;18.040;2022-10-13T06:50:33;10.30;99.90
12130;DHT22;6128;59.340;18.040;2022-10-13T06:53:01;10.40;99.90
12130;DHT22;6128;59.340;18.040;2022-10-13T06:55:28;10.40;99.90
12130;DHT22;6128;59.340;18.040;2022-10-13T06:57:55;10.50;99.90
12130;DHT22;6128;59.340;18.040;2022-10-13T07:00:22;10.50;99.90
12130;DHT22;6128;59.340;18.040;2022-10-13T07:02:50;10.60;99.90
12130;DHT22;6128;59.340;18.040;2022-10-13T07:05:18;10.70;99.90
12130;DHT22;6128;59.340;18.040;2022-10-13T07:07:45;10.70;99.90
12130;DHT22;6128;59.340;18.040;2022-10-13T07:10:14;10.80;99.90
12130;DHT22;6128;59.340;18.040;2022-10-13T07:12:41;10.90;99.90
12130;DHT22;6128;59.340;18.040;2022-10-13T07:15:08;10.90;99.90
12130;DHT22;6128;59.340;18.040;2022-10-13T07:17:36;11.00;99.90
12130;DHT22;6128;59.340;18.040;2022-10-13T07:20:04;11.10;99.90
12130;DHT22;6128;59.340;18.040;2022-10-13T07:22:31;11.10;99.90
12130;DHT22;6128;59.340;18.040;2022-10-13T07:24:58;11.20;99.90
12130;DHT22;6128;59.340;18.040;2022-10-13T07:27:27;11.20;99.90
12130;DHT22;6128;59.340;18.040;2022-10-13T07:29:54;11.30;99.90
12130;DHT22;6128;59.340;18.040;2022-10-13T07:32:21;11.40;99.90
12130;DHT22;6128;59.340;18.040;2022-10-13T07:34:51;11.40;99.90
12130;DHT22;6128;59.340;18.040;2022-10-13T07:37:18;11.50;99.90
12130;DHT22;6128;59.340;18.040;2022-10-13T07:39:45;11.50;99.90
12130;DHT22;6128;59.340;18.040;2022-10-13T07:42:12;11.60;99.90
12130;DHT22;6128;59.340;18.040;2022-10-13T07:44:41;11.60;99.90
12130;DHT22;6128;59.340;18.040;2022-10-13T07:47:08;11.60;99.90
12130;DHT22;6128;59.340;18.040;2022-10-13T07:49:35;11.70;99.90
12130;DHT22;6128;59.340;18.040;2022-10-13T07:52:02;11.70;99.90
12130;DHT22;6128;59.340;18.040;2022-10-13T07:54:29;11.80;99.90
12130;DHT22;6128;59.340;18.040;2022-10-13T07:56:57;11.90;99.90
12130;DHT22;6128;59.340;18.040;2022-10-13T07:59:24;12.00;99.90
12130;DHT22;6128;59.340;18.040;2022-10-13T08:01:52;12.10;99.90
12130;DHT22;6128;59.340;18.040;2022-10-13T08:04:19;12.20;99.90
12130;DHT22;6128;59.340;18.040;2022-10-13T08:06:46;12.30;99.90
12130;DHT22;6128;59.340;18.040;2022-10-13T08:09:13;12.40;99.90
12130;DHT22;6128;59.340;18.040;2022-10-13T08:11:40;12.50;99.90
12130;DHT22;6128;59.340;18.040;2022-10-13T08:14:11;12.60;99.90
12130;DHT22;6128;59.340;18.040;2022-10-13T08:16:38;12.60;99.90
12130;DHT22;6128;59.340;18.040;2022-10-13T08:19:10;12.70;99.90
12130;DHT22;6128;59.340;18.040;2022-10-13T08:21:37;12.80;99.90
12130;DHT22;6128;59.340;18.040;2022-10-13T08:24:05;13.00;99.90
12130;DHT22;6128;59.340;18.040;2022-10-13T08:26:32;13.30;99.90
12130;DHT22;6128;59.340;18.040;2022-10-13T08:28:59;13.80;99.90
12130;DHT22;6128;59.340;18.040;2022-10-13T08:31:27;14.60;99.90
12130;DHT22;6128;59.340;18.040;2022-10-13T08:33:54;15.20;99.90
12130;DHT22;6128;59.340;18.040;2022-10-13T08:36:22;15.70;99.90
12130;DHT22;6128;59.340;18.040;2022-10-13T08:38:50;16.20;99.90
12130;DHT22;6128;59.340;18.040;2022-10-13T08:41:20;16.60;99.90
12130;DHT22;6128;59.340;18.040;2022-10-13T08:43:50;16.70;99.90
12130;DHT22;6128;59.340;18.040;2022-10-13T08:46:22;16.60;99.90
12130;DHT22;6128;59.340;18.040;2022-10-13T08:48:51;16.20;99.90
12130;DHT22;6128;59.340;18.040;2022-10-13T08:51:18;16.00;99.90
12130;DHT22;6128;59.340;18.040;2022-10-13T08:53:47;15.90;99.90
12130;DHT22;6128;59.340;18.040;2022-10-13T08:56:18;15.80;99.90
12130;DHT22;6128;59.340;18.040;2022-10-13T08:58:47;15.60;99.90
12130;DHT22;6128;59.340;18.040;2022-10-13T09:01:16;15.30;99.90
12130;DHT22;6128;59.340;18.040;2022-10-13T09:03:52;15.00;99.90
12130;DHT22;6128;59.340;18.040;2022-10-13T09:06:22;14.80;99.90
12130;DHT22;6128;59.340;18.040;2022-10-13T09:08:56;14.70;99.90
12130;DHT22;6128;59.340;18.040;2022-10-13T09:11:28;14.80;99.90
12130;DHT22;6128;59.340;18.040;2022-10-13T09:13:58;14.70;99.90
12130;DHT22;6128;59.340;18.040;2022-10-13T09:16:32;14.60;99.90
12130;DHT22;6128;59.340;18.040;2022-10-13T09:19:16;14.50;99.90
12130;DHT22;6128;59.340;18.040;2022-10-13T09:21:45;14.40;99.90
12130;DHT22;6128;59.340;18.040;2022-10-13T09:24:15;14.30;99.90
12130;DHT22;6128;59.340;18.040;2022-10-13T09:26:45;14.10;99.90
12130;DHT22;6128;59.340;18.040;2022-10-13T09:29:16;14.00;99.90
12130;DHT22;6128;59.340;18.040;2022-10-13T09:31:43;14.00;99.90
12130;DHT22;6128;59.340;18.040;2022-10-13T09:34:21;13.90;99.90
12130;DHT22;6128;59.340;18.040;2022-10-13T09:36:59;13.90;99.90
12130;DHT22;6128;59.340;18.040;2022-10-13T09:39:30;13.80;99.90
12130;DHT22;6128;59.340;18.040;2022-10-13T09:42:21;13.70;99.90
12130;DHT22;6128;59.340;18.040;2022-10-13T09:44:58;13.60;99.90
12130;DHT22;6128;59.340;18.040;2022-10-13T09:47:27;13.60;99.90
12130;DHT22;6128;59.340;18.040;2022-10-13T09:50:00;13.50;99.90
12130;DHT22;6128;59.340;18.040;2022-10-13T09:52:28;13.40;99.90
12130;DHT22;6128;59.340;18.040;2022-10-13T09:54:58;13.40;99.90
12130;DHT22;6128;59.340;18.040;2022-10-13T09:57:34;13.40;99.90
12130;DHT22;6128;59.340;18.040;2022-10-13T10:00:11;13.50;99.90
12130;DHT22;6128;59.340;18.040;2022-10-13T10:02:44;13.50;99.90
12130;DHT22;6128;59.340;18.040;2022-10-13T10:05:20;13.50;99.90
12130;DHT22;6128;59.340;18.040;2022-10-13T10:07:50;13.50;99.90
12130;DHT22;6128;59.340;18.040;2022-10-13T10:10:28;13.50;99.90
12130;DHT22;6128;59.340;18.040;2022-10-13T10:12:58;13.50;99.90
12130;DHT22;6128;59.340;18.040;2022-10-13T10:15:31;13.50;99.90
12130;DHT22;6128;59.340;18.040;2022-10-13T10:18:06;13.60;99.90
12130;DHT22;6128;59.340;18.040;2022-10-13T10:20:44;13.60;99.90
12130;DHT22;6128;59.340;18.040;2022-10-13T10:23:17;13.70;99.90
12130;DHT22;6128;59.340;18.040;2022-10-13T10:25:50;13.80;99.90
12130;DHT22;6128;59.340;18.040;2022-10-13T10:28:54;13.80;99.90
12130;DHT22;6128;59.340;18.040;2022-10-13T10:31:33;13.80;99.90
12130;DHT22;6128;59.340;18.040;2022-10-13T10:34:12;13.90;99.90
12130;DHT22;6128;59.340;18.040;2022-10-13T10:36:50;13.90;99.90
12130;DHT22;6128;59.340;18.040;2022-10-13T10:39:25;14.00;99.90
12130;DHT22;6128;59.340;18.040;2022-10-13T10:42:02;14.10;99.90
12130;DHT22;6128;59.340;18.040;2022-10-13T10:44:34;14.00;99.90
12130;DHT22;6128;59.340;18.040;2022-10-13T10:47:06;14.00;99.90
12130;DHT22;6128;59.340;18.040;2022-10-13T10:49:34;14.00;99.90
12130;DHT22;6128;59.340;18.040;2022-10-13T10:52:06;14.00;99.90
12130;DHT22;6128;59.340;18.040;2022-10-13T10:54:41;14.00;99.90
12130;DHT22;6128;59.340;18.040;2022-10-13T10:57:17;13.90;99.90
12130;DHT22;6128;59.340;18.040;2022-10-13T10:59:52;14.00;99.90
12130;DHT22;6128;59.340;18.040;2022-10-13T11:02:43;14.00;99.90
12130;DHT22;6128;59.340;18.040;2022-10-13T11:05:13;13.90;99.90
12130;DHT22;6128;59.340;18.040;2022-10-13T11:08:01;14.00;99.90
12130;DHT22;6128;59.340;18.040;2022-10-13T11:10:29;13.90;99.90
12130;DHT22;6128;59.340;18.040;2022-10-13T11:13:15;13.90;99.90
12130;DHT22;6128;59.340;18.040;2022-10-13T11:15:44;13.90;99.90
12130;DHT22;6128;59.340;18.040;2022-10-13T11:21:16;13.90;99.90
12130;DHT22;6128;59.340;18.040;2022-10-13T11:23:44;13.90;99.90
12130;DHT22;6128;59.340;18.040;2022-10-13T11:26:29;14.00;99.90
12130;DHT22;6128;59.340;18.040;2022-10-13T11:28:58;13.90;99.90
12130;DHT22;6128;59.340;18.040;2022-10-13T11:31:29;13.90;99.90
12130;DHT22;6128;59.340;18.040;2022-10-13T11:33:58;13.90;99.90
12130;DHT22;6128;59.340;18.040;2022-10-13T11:36:31;13.90;99.90
12130;DHT22;6128;59.340;18.040;2022-10-13T11:39:10;13.80;99.90
12130;DHT22;6128;59.340;18.040;2022-10-13T11:41:49;13.80;99.90
12130;DHT22;6128;59.340;18.040;2022-10-13T11:44:24;13.80;99.90
12130;DHT22;6128;59.340;18.040;2022-10-13T11:46:59;13.70;99.90
12130;DHT22;6128;59.340;18.040;2022-10-13T11:49:48;13.70;99.90
12130;DHT22;6128;59.340;18.040;2022-10-13T11:52:36;13.70;99.90
12130;DHT22;6128;59.340;18.040;2022-10-13T11:55:11;13.70;99.90
12130;DHT22;6128;59.340;18.040;2022-10-13T11:57:40;13.70;99.90
12130;DHT22;6128;59.340;18.040;2022-10-13T12:00:13;13.70;99.90
12130;DHT22;6128;59.340;18.040;2022-10-13T12:02:47;13.70;99.90
12130;DHT22;6128;59.340;18.040;2022-10-13T12:05:21;13.60;99.90
12130;DHT22;6128;59.340;18.040;2022-10-13T12:07:49;13.60;99.90
12130;DHT22;6128;59.340;18.040;2022-10-13T12:10:21;13.50;99.90
12130;DHT22;6128;59.340;18.040;2022-10-13T12:12:49;13.50;99.90
12130;DHT22;6128;59.340;18.040;2022-10-13T12:15:31;13.50;99.90
12130;DHT22;6128;59.340;18.040;2022-10-13T12:18:00;13.60;99.90
12130;DHT22;6128;59.340;18.040;2022-10-13T12:20:31;13.60;99.90
12130;DHT22;6128;59.340;18.040;2022-10-13T12:22:58;13.60;99.90
12130;DHT22;6128;59.340;18.040;2022-10-13T12:25:27;13.70;99.90
12130;DHT22;6128;59.340;18.040;2022-10-13T12:27:57;13.70;99.90
12130;DHT22;6128;59.340;18.040;2022-10-13T12:30:28;13.70;99.90
12130;DHT22;6128;59.340;18.040;2022-10-13T12:32:57;13.70;99.90
12130;DHT22;6128;59.340;18.040;2022-10-13T12:35:26;13.70;99.90
12130;DHT22;6128;59.340;18.040;2022-10-13T12:37:55;13.70;99.90
12130;DHT22;6128;59.340;18.040;2022-10-13T12:40:23;13.70;99.90
12130;DHT22;6128;59.340;18.040;2022-10-13T12:42:50;13.70;99.90
12130;DHT22;6128;59.340;18.040;2022-10-13T12:45:19;13.60;99.90
12130;DHT22;6128;59.340;18.040;2022-10-13T12:47:50;13.60;99.90
12130;DHT22;6128;59.340;18.040;2022-10-13T12:50:34;13.60;99.90
12130;DHT22;6128;59.340;18.040;2022-10-13T12:53:11;13.50;99.90
12130;DHT22;6128;59.340;18.040;2022-10-13T12:55:54;13.50;99.90
12130;DHT22;6128;59.340;18.040;2022-10-13T12:58:26;13.40;99.90
12130;DHT22;6128;59.340;18.040;2022-10-13T13:01:03;13.30;99.90
12130;DHT22;6128;59.340;18.040;2022-10-13T13:03:34;13.30;99.90
12130;DHT22;6128;59.340;18.040;2022-10-13T13:06:20;13.20;99.90
12130;DHT22;6128;59.340;18.040;2022-10-13T13:12:18;13.20;99.90
12130;DHT22;6128;59.340;18.040;2022-10-13T13:14:48;13.20;99.90
12130;DHT22;6128;59.340;18.040;2022-10-13T13:17:23;13.10;99.90
12130;DHT22;6128;59.340;18.040;2022-10-13T13:19:53;13.10;99.90
12130;DHT22;6128;59.340;18.040;2022-10-13T13:22:20;13.20;99.90
12130;DHT22;6128;59.340;18.040;2022-10-13T13:24:49;13.20;99.90
12130;DHT22;6128;59.340;18.040;2022-10-13T13:27:19;13.20;99.90
12130;DHT22;6128;59.340;18.040;2022-10-13T13:29:47;13.20;99.90
12130;DHT22;6128;59.340;18.040;2022-10-13T13:32:16;13.20;99.90
12130;DHT22;6128;59.340;18.040;2022-10-13T13:34:43;13.20;99.90
12130;DHT22;6128;59.340;18.040;2022-10-13T13:37:19;13.10;99.90
12130;DHT22;6128;59.340;18.040;2022-10-13T13:39:48;13.20;99.90
12130;DHT22;6128;59.340;18.040;2022-10-13T13:42:16;13.20;99.90
12130;DHT22;6128;59.340;18.040;2022-10-13T13:44:43;13.10;99.90
12130;DHT22;6128;59.340;18.040;2022-10-13T13:47:14;13.20;99.90
12130;DHT22;6128;59.340;18.040;2022-10-13T13:49:42;13.20;99.90
12130;DHT22;6128;59.340;18.040;2022-10-13T13:52:10;13.10;99.90
12130;DHT22;6128;59.340;18.040;2022-10-13T13:54:38;13.10;99.90
12130;DHT22;6128;59.340;18.040;2022-10-13T13:57:06;13.10;99.90
12130;DHT22;6128;59.340;18.040;2022-10-13T13:59:33;13.10;99.90
12130;DHT22;6128;59.340;18.040;2022-10-13T14:02:00;13.10;99.90
12130;DHT22;6128;59.340;18.040;2022-10-13T14:04:27;13.10;99.90
12130;DHT22;6128;59.340;18.040;2022-10-13T14:06:54;13.10;99.90
12130;DHT22;6128;59.340;18.040;2022-10-13T14:09:21;13.10;99.90
12130;DHT22;6128;59.340;18.040;2022-10-13T14:11:49;13.10;99.90
12130;DHT22;6128;59.340;18.040;2022-10-13T14:14:16;13.10;99.90
12130;DHT22;6128;59.340;18.040;2022-10-13T14:16:44;13.00;99.90
12130;DHT22;6128;59.340;18.040;2022-10-13T14:19:11;13.00;99.90
12130;DHT22;6128;59.340;18.040;2022-10-13T14:21:38;13.00;99.90
12130;DHT22;6128;59.340;18.040;2022-10-13T14:24:05;13.00;99.90
12130;DHT22;6128;59.340;18.040;2022-10-13T14:26:33;13.00;99.90
12130;DHT22;6128;59.340;18.040;2022-10-13T14:29:01;13.00;99.90
12130;DHT22;6128;59.340;18.040;2022-10-13T14:31:28;13.00;99.90
12130;DHT22;6128;59.340;18.040;2022-10-13T14:33:56;12.90;99.90
12130;DHT22;6128;59.340;18.040;2022-10-13T14:36:23;12.90;99.90
12130;DHT22;6128;59.340;18.040;2022-10-13T14:38:51;12.90;99.90
12130;DHT22;6128;59.340;18.040;2022-10-13T14:41:19;12.90;99.90
12130;DHT22;6128;59.340;18.040;2022-10-13T14:43:46;12.90;99.90
12130;DHT22;6128;59.340;18.040;2022-10-13T14:46:15;12.90;99.90
12130;DHT22;6128;59.340;18.040;2022-10-13T14:48:42;12.90;99.90
12130;DHT22;6128;59.340;18.040;2022-10-13T14:51:10;12.90;99.90
12130;DHT22;6128;59.340;18.040;2022-10-13T14:53:39;13.00;99.90
12130;DHT22;6128;59.340;18.040;2022-10-13T14:56:15;13.00;99.90
12130;DHT22;6128;59.340;18.040;2022-10-13T14:58:43;12.90;99.90
12130;DHT22;6128;59.340;18.040;2022-10-13T15:01:10;12.90;99.90
12130;DHT22;6128;59.340;18.040;2022-10-13T15:03:39;12.90;99.90
12130;DHT22;6128;59.340;18.040;2022-10-13T15:06:07;12.90;99.90
12130;DHT22;6128;59.340;18.040;2022-10-13T15:08:36;12.90;99.90
12130;DHT22;6128;59.340;18.040;2022-10-13T15:11:03;12.80;99.90
12130;DHT22;6128;59.340;18.040;2022-10-13T15:13:30;12.80;99.90
12130;DHT22;6128;59.340;18.040;2022-10-13T15:15:57;12.80;99.90
12130;DHT22;6128;59.340;18.040;2022-10-13T15:18:25;12.80;99.90
12130;DHT22;6128;59.340;18.040;2022-10-13T15:20:55;12.70;99.90
12130;DHT22;6128;59.340;18.040;2022-10-13T15:23:22;12.70;99.90
12130;DHT22;6128;59.340;18.040;2022-10-13T15:25:50;12.70;99.90
12130;DHT22;6128;59.340;18.040;2022-10-13T15:28:17;12.70;99.90
12130;DHT22;6128;59.340;18.040;2022-10-13T15:30:45;12.70;99.90
12130;DHT22;6128;59.340;18.040;2022-10-13T15:33:12;12.60;99.90
12130;DHT22;6128;59.340;18.040;2022-10-13T15:35:39;12.70;99.90
12130;DHT22;6128;59.340;18.040;2022-10-13T15:38:08;12.60;99.90
12130;DHT22;6128;59.340;18.040;2022-10-13T15:40:38;12.60;99.90
12130;DHT22;6128;59.340;18.040;2022-10-13T15:43:05;12.60;99.90
12130;DHT22;6128;59.340;18.040;2022-10-13T15:45:33;12.60;99.90
12130;DHT22;6128;59.340;18.040;2022-10-13T15:48:00;12.60;99.90
12130;DHT22;6128;59.340;18.040;2022-10-13T15:50:27;12.50;99.90
12130;DHT22;6128;59.340;18.040;2022-10-13T15:52:54;12.50;99.90
12130;DHT22;6128;59.340;18.040;2022-10-13T15:55:23;12.50;99.90
12130;DHT22;6128;59.340;18.040;2022-10-13T15:57:50;12.40;99.90
12130;DHT22;6128;59.340;18.040;2022-10-13T16:00:18;12.40;99.90
12130;DHT22;6128;59.340;18.040;2022-10-13T16:02:48;12.40;99.90